Time;durP1;ratioP1;P1;durP2;ratioP2;P2;SDS_P1;SDS_P2;PMS_P1;PMS_P2;Temp;Humidity;BMP_temperature;BMP_pressure;BME280_temperature;BME280_humidity;BME280_pressure;Samples;Min_cycle;Max_cycle;Signal;HPM_P1;HPM_P2
2021/09/08 00:01:34;;;;;;;5.20;1.65;;;;;;;23.00;35.58;99823.00;5066553;28;20051;-72
2021/09/08 00:04:00;;;;;;;4.47;1.90;;;;;;;23.01;35.48;99817.34;5033499;28;20041;-72
2021/09/08 00:06:27;;;;;;;3.63;1.83;;;;;;;22.99;35.28;99827.59;5033343;28;20127;-72
2021/09/08 00:08:53;;;;;;;4.20;1.83;;;;;;;23.01;35.58;99814.63;5033392;28;20053;-72
2021/09/08 00:11:19;;;;;;;2.63;1.67;;;;;;;22.94;35.60;99821.22;5033085;28;20416;-73
2021/09/08 00:13:45;;;;;;;3.80;1.70;;;;;;;22.75;35.64;99809.66;5033268;28;20110;-72
2021/09/08 00:16:13;;;;;;;4.20;1.60;;;;;;;22.86;35.75;99808.81;5033014;28;20496;-72
2021/09/08 00:18:38;;;;;;;4.63;1.70;;;;;;;22.84;35.65;99823.66;5033178;28;20406;-72
2021/09/08 00:21:04;;;;;;;3.58;1.60;;;;;;;22.85;35.55;99815.31;5032653;28;20063;-72
2021/09/08 00:23:30;;;;;;;2.40;1.60;;;;;;;23.05;35.31;99823.94;4998726;28;20055;-72
2021/09/08 00:25:56;;;;;;;5.35;1.73;;;;;;;22.97;35.34;99818.84;5030670;28;20494;-73
2021/09/08 00:28:34;;;;;;;4.28;1.63;;;;;;;22.79;35.28;99820.81;5002143;28;20052;-72
2021/09/08 00:31:00;;;;;;;4.45;1.70;;;;;;;22.86;35.45;99824.25;5031023;28;20053;-73
2021/09/08 00:33:27;;;;;;;4.97;1.90;;;;;;;22.87;35.47;99806.94;5047190;28;20231;-72
2021/09/08 00:35:53;;;;;;;2.33;1.70;;;;;;;22.84;35.13;99823.66;5046927;28;20464;-72
2021/09/08 00:38:20;;;;;;;3.63;1.75;;;;;;;22.93;35.28;99812.25;5030934;28;20131;-73
2021/09/08 00:40:46;;;;;;;4.03;1.70;;;;;;;22.93;35.11;99812.25;5049451;28;20044;-73
2021/09/08 00:43:12;;;;;;;3.40;1.60;;;;;;;22.88;35.37;99814.03;5032999;28;20560;-72
2021/09/08 00:45:38;;;;;;;5.30;1.92;;;;;;;23.09;34.91;99819.69;5049812;28;20120;-71
2021/09/08 00:48:05;;;;;;;4.03;1.80;;;;;;;22.80;35.19;99809.75;5049403;28;20048;-72
2021/09/08 00:50:31;;;;;;;2.88;1.50;;;;;;;22.91;35.32;99816.28;5031841;28;20529;-72
2021/09/08 00:53:00;;;;;;;3.25;1.60;;;;;;;23.29;34.84;99814.78;5051892;28;20052;-72
2021/09/08 00:55:29;;;;;;;6.25;1.67;;;;;;;23.13;35.10;99809.22;5036933;28;20064;-72
2021/09/08 00:57:55;;;;;;;4.32;1.80;;;;;;;23.08;35.01;99804.50;5053645;28;20497;-72
2021/09/08 01:00:25;;;;;;;5.30;1.90;;;;;;;22.86;35.07;99795.28;5037378;28;20551;-72
2021/09/08 01:02:54;;;;;;;2.45;1.58;;;;;;;22.73;35.48;99808.22;5036938;28;20072;-72
2021/09/08 01:05:24;;;;;;;4.40;1.80;;;;;;;23.03;34.77;99808.97;5020840;28;20076;-72
2021/09/08 01:07:51;;;;;;;9.10;1.60;;;;;;;23.06;34.70;99803.09;5020801;28;20361;-72
2021/09/08 01:10:18;;;;;;;2.55;1.52;;;;;;;23.14;34.62;99808.97;5004015;28;20040;-73
2021/09/08 01:12:44;;;;;;;2.38;1.70;;;;;;;22.93;34.89;99801.44;5053108;28;20408;-72
2021/09/08 01:15:13;;;;;;;5.10;1.85;;;;;;;23.19;34.67;99795.56;5020008;28;20040;-72
2021/09/08 01:17:41;;;;;;;3.53;1.77;;;;;;;23.01;35.13;99809.22;5052944;28;20385;-72
2021/09/08 01:20:08;;;;;;;7.38;1.80;;;;;;;22.78;35.53;99792.09;5019840;28;20052;-72
2021/09/08 01:22:43;;;;;;;3.47;1.75;;;;;;;23.17;34.80;99802.28;5053094;28;20052;-72
2021/09/08 01:25:09;;;;;;;3.90;1.77;;;;;;;22.61;35.52;99802.78;5036386;28;20056;-73
2021/09/08 01:27:35;;;;;;;3.72;2.05;;;;;;;22.59;35.74;99796.75;5052522;28;20053;-73
2021/09/08 01:30:01;;;;;;;4.28;1.73;;;;;;;22.64;35.57;99791.50;5019959;28;20048;-73
2021/09/08 01:32:32;;;;;;;6.43;2.75;;;;;;;22.81;35.37;99803.31;5036068;28;20052;-74
2021/09/08 01:34:59;;;;;;;4.57;1.60;;;;;;;22.51;35.96;99801.69;5052483;28;20072;-73
2021/09/08 01:37:25;;;;;;;4.63;1.88;;;;;;;22.57;35.84;99795.34;5052479;28;20436;-73
2021/09/08 01:39:51;;;;;;;5.32;1.80;;;;;;;22.38;35.89;99794.56;5035974;28;20128;-73
2021/09/08 01:42:17;;;;;;;4.47;1.73;;;;;;;22.18;36.21;99793.16;5035588;28;20097;-73
2021/09/08 01:44:45;;;;;;;3.17;2.00;;;;;;;22.38;36.30;99799.97;5035510;28;20049;-73
2021/09/08 01:47:11;;;;;;;3.75;1.88;;;;;;;22.44;35.95;99795.50;5052361;28;20468;-73
2021/09/08 01:49:37;;;;;;;5.68;2.22;;;;;;;22.38;36.04;99797.25;5019098;28;20057;-73
2021/09/08 01:52:04;;;;;;;3.38;1.77;;;;;;;22.51;35.88;99797.09;5035614;28;20516;-73
2021/09/08 01:54:30;;;;;;;4.43;2.00;;;;;;;22.49;36.17;99799.19;5051041;28;20040;-73
2021/09/08 01:56:56;;;;;;;5.35;2.10;;;;;;;22.43;36.02;99799.28;5017739;28;20126;-72
2021/09/08 01:59:22;;;;;;;4.95;1.85;;;;;;;22.50;35.83;99795.41;5034023;28;20053;-72
2021/09/08 02:01:48;;;;;;;4.45;2.00;;;;;;;22.54;35.80;99798.53;5017538;28;20041;-72
2021/09/08 02:04:14;;;;;;;4.32;2.10;;;;;;;22.49;35.74;99801.06;5033499;28;20052;-72
2021/09/08 02:06:51;;;;;;;3.60;1.55;;;;;;;22.86;35.33;99795.28;5051205;28;20109;-72
2021/09/08 02:09:18;;;;;;;2.60;1.80;;;;;;;22.52;36.07;99796.06;5018265;28;20055;-72
2021/09/08 02:11:44;;;;;;;4.40;1.92;;;;;;;22.30;36.26;99797.56;5051933;28;20513;-72
2021/09/08 02:14:11;;;;;;;4.10;1.65;;;;;;;22.08;36.94;99782.09;5035419;28;20051;-71
2021/09/08 02:16:37;;;;;;;2.70;1.70;;;;;;;22.11;36.48;99787.84;5018624;28;20049;-71
2021/09/08 02:19:04;;;;;;;3.88;1.83;;;;;;;22.12;36.26;99792.22;5035750;28;20139;-72
2021/09/08 02:21:30;;;;;;;1.90;1.60;;;;;;;22.24;36.43;99787.66;5018846;28;20045;-72
2021/09/08 02:23:56;;;;;;;3.42;1.75;;;;;;;21.96;36.39;99784.72;5035201;28;20528;-72
2021/09/08 02:26:22;;;;;;;4.85;1.80;;;;;;;22.21;36.62;99788.13;5018639;28;20501;-72
2021/09/08 02:28:49;;;;;;;2.72;1.83;;;;;;;22.32;36.17;99784.66;5051430;28;20064;-73
2021/09/08 02:31:15;;;;;;;2.17;1.75;;;;;;;22.07;36.38;99781.25;5035150;28;20049;-72
2021/09/08 02:33:41;;;;;;;2.90;1.92;;;;;;;22.26;36.15;99790.16;5051441;28;20501;-72
2021/09/08 02:36:07;;;;;;;4.60;1.85;;;;;;;22.09;36.34;99778.31;5018875;28;20045;-73
2021/09/08 02:38:34;;;;;;;4.97;1.77;;;;;;;22.43;35.98;99785.75;5034789;28;20463;-73
2021/09/08 02:41:06;;;;;;;4.60;1.73;;;;;;;22.38;36.00;99764.78;5018568;28;20388;-73
2021/09/08 02:43:33;;;;;;;3.63;2.00;;;;;;;22.49;35.81;99776.69;5035361;28;20122;-73
2021/09/08 02:46:01;;;;;;;6.10;1.77;;;;;;;22.29;36.09;99779.69;5051571;28;20144;-72
2021/09/08 02:48:28;;;;;;;5.25;1.88;;;;;;;22.37;35.84;99778.56;5051399;28;20056;-72
2021/09/08 02:50:54;;;;;;;3.47;1.67;;;;;;;22.21;36.25;99774.59;5034158;28;20048;-72
2021/09/08 02:53:21;;;;;;;5.15;2.03;;;;;;;22.01;36.38;99762.38;5050360;28;20574;-72
2021/09/08 02:55:47;;;;;;;3.65;1.75;;;;;;;21.96;36.53;99770.38;5017633;28;20076;-72
2021/09/08 02:58:13;;;;;;;3.72;1.98;;;;;;;22.14;36.29;99763.03;5033593;28;20095;-72
2021/09/08 03:00:39;;;;;;;3.75;1.88;;;;;;;22.10;36.15;99759.16;5050890;28;20037;-72
2021/09/08 03:03:05;;;;;;;2.67;2.00;;;;;;;22.09;36.13;99764.78;5034020;28;20506;-72
2021/09/08 03:05:30;;;;;;;2.70;1.85;;;;;;;21.99;36.57;99761.81;5033932;28;20041;-72
2021/09/08 03:07:56;;;;;;;2.33;1.60;;;;;;;22.07;36.45;99770.44;5050478;28;20050;-72
2021/09/08 03:10:22;;;;;;;3.15;1.90;;;;;;;22.02;36.33;99764.88;5017381;28;20048;-72
2021/09/08 03:12:48;;;;;;;5.20;1.92;;;;;;;22.04;36.31;99759.22;5050410;28;20048;-74
2021/09/08 03:15:14;;;;;;;2.90;1.70;;;;;;;21.97;36.30;99761.22;5033156;28;20048;-73
2021/09/08 03:17:40;;;;;;;3.88;1.70;;;;;;;22.08;36.30;99765.84;5033760;28;20049;-73
2021/09/08 03:20:06;;;;;;;3.17;1.80;;;;;;;21.98;36.63;99760.97;5017325;28;20084;-73
2021/09/08 03:22:33;;;;;;;2.03;1.63;;;;;;;22.16;36.19;99760.94;5049984;28;20044;-72
2021/09/08 03:24:58;;;;;;;6.05;1.85;;;;;;;22.17;36.13;99767.19;5033570;28;20099;-72
2021/09/08 03:27:24;;;;;;;3.20;2.00;;;;;;;22.09;36.33;99762.91;5033178;28;20421;-71
2021/09/08 03:29:50;;;;;;;3.58;2.03;;;;;;;22.13;36.27;99758.69;5033479;28;20496;-71
2021/09/08 03:32:16;;;;;;;6.25;2.03;;;;;;;21.93;36.48;99760.84;5049967;28;20071;-72
2021/09/08 03:34:42;;;;;;;3.30;2.15;;;;;;;22.12;36.42;99758.91;5033681;28;20048;-72
2021/09/08 03:37:07;;;;;;;7.18;2.00;;;;;;;22.13;36.07;99753.28;5050336;28;20102;-73
2021/09/08 03:39:33;;;;;;;5.28;2.00;;;;;;;22.18;36.02;99764.25;5000756;28;20052;-66
2021/09/08 03:41:59;;;;;;;4.22;2.03;;;;;;;22.12;36.13;99757.03;5049890;28;20048;-65
2021/09/08 03:44:25;;;;;;;5.30;1.92;;;;;;;21.95;36.13;99739.81;5033216;28;20044;-65
2021/09/08 03:46:50;;;;;;;9.00;2.20;;;;;;;21.80;37.02;99755.59;5049761;28;20079;-64
2021/09/08 03:49:17;;;;;;;3.40;1.90;;;;;;;21.64;36.76;99735.38;5017100;28;20044;-65
2021/09/08 03:51:43;;;;;;;2.40;1.80;;;;;;;21.77;36.90;99752.53;5033080;28;20519;-65
2021/09/08 03:54:09;;;;;;;5.47;2.10;;;;;;;21.93;36.47;99752.72;5049739;28;20064;-65
2021/09/08 03:56:35;;;;;;;4.80;1.90;;;;;;;22.16;35.89;99765.50;5032779;28;20077;-64
2021/09/08 03:59:00;;;;;;;3.83;2.05;;;;;;;22.24;35.88;99762.47;5016629;28;20048;-65
2021/09/08 04:01:26;;;;;;;5.45;2.15;;;;;;;22.22;36.16;99759.22;5049241;28;20052;-65
2021/09/08 04:03:53;;;;;;;4.50;2.22;;;;;;;22.24;36.05;99759.78;5033067;28;20097;-65
2021/09/08 04:06:19;;;;;;;5.72;2.20;;;;;;;22.23;35.64;99768.97;5032807;28;20129;-64
2021/09/08 04:08:45;;;;;;;5.10;1.98;;;;;;;22.04;36.36;99761.94;5016390;28;20044;-65
2021/09/08 04:11:11;;;;;;;4.00;2.13;;;;;;;22.29;35.75;99759.94;5053887;28;20162;-69
2021/09/08 04:13:37;;;;;;;5.70;2.30;;;;;;;22.04;36.24;99751.13;5031874;28;20158;-68
2021/09/08 04:16:03;;;;;;;3.55;2.20;;;;;;;22.06;36.07;99740.91;5034910;28;20554;-66
2021/09/08 04:18:29;;;;;;;4.50;2.22;;;;;;;21.93;36.30;99758.13;5035178;28;20051;-66
2021/09/08 04:20:55;;;;;;;3.15;2.40;;;;;;;21.92;36.67;99759.19;5051874;28;20045;-66
2021/09/08 04:23:21;;;;;;;3.08;2.10;;;;;;;21.90;36.22;99765.88;5051375;28;20090;-67
2021/09/08 04:25:47;;;;;;;5.90;2.10;;;;;;;22.10;36.16;99752.91;5051385;28;20048;-66
2021/09/08 04:28:13;;;;;;;5.57;2.20;;;;;;;21.98;36.22;99762.84;5034233;28;20056;-66
2021/09/08 04:30:40;;;;;;;4.57;1.90;;;;;;;21.95;35.95;99766.84;5053267;28;20045;-73
2021/09/08 04:33:07;;;;;;;7.78;2.30;;;;;;;21.83;35.76;99765.97;5060870;28;20060;-66
2021/09/08 04:35:33;;;;;;;5.57;2.22;;;;;;;21.98;36.23;99760.16;5051947;28;20053;-68
2021/09/08 04:37:59;;;;;;;5.28;2.42;;;;;;;21.97;36.31;99766.63;5068375;28;20044;-67
2021/09/08 04:40:24;;;;;;;7.35;2.50;;;;;;;22.26;35.71;99765.78;5051150;28;20424;-67
2021/09/08 04:42:50;;;;;;;4.55;2.10;;;;;;;22.11;36.00;99749.97;5035050;28;20044;-68
2021/09/08 04:45:16;;;;;;;6.18;2.00;;;;;;;22.47;35.49;99757.97;5034725;28;20055;-67
2021/09/08 04:47:42;;;;;;;4.95;2.30;;;;;;;22.61;34.71;99764.03;5034716;28;20499;-66
2021/09/08 04:50:09;;;;;;;5.68;2.45;;;;;;;22.60;34.95;99754.28;5049905;28;20521;-73
2021/09/08 04:52:36;;;;;;;3.78;2.08;;;;;;;22.11;35.07;99755.38;5050431;28;20052;-67
2021/09/08 04:55:03;;;;;;;4.35;2.10;;;;;;;22.69;35.15;99761.84;5049786;28;20329;-67
2021/09/08 04:57:29;;;;;;;2.78;1.80;;;;;;;22.20;35.40;99735.09;5049854;28;20037;-67
2021/09/08 04:59:54;;;;;;;4.28;2.10;;;;;;;22.15;36.03;99755.75;5033457;28;20462;-66
2021/09/08 05:02:20;;;;;;;3.35;2.30;;;;;;;22.82;34.53;99761.59;5033574;28;20178;-66
2021/09/08 05:04:46;;;;;;;3.38;2.28;;;;;;;23.03;34.27;99765.63;5051199;28;20064;-66
2021/09/08 05:07:12;;;;;;;12.27;2.47;;;;;;;22.87;33.80;99756.31;5034561;28;20048;-66
2021/09/08 05:09:38;;;;;;;3.67;1.95;;;;;;;23.13;34.28;99758.56;5032775;28;20102;-66
2021/09/08 05:12:04;;;;;;;4.35;2.03;;;;;;;23.30;33.75;99756.00;5032430;28;20392;-66
2021/09/08 05:14:29;;;;;;;4.00;2.17;;;;;;;22.75;34.24;99757.34;5049426;28;20044;-66
2021/09/08 05:16:55;;;;;;;4.32;2.10;;;;;;;23.17;34.12;99748.88;5065628;28;20121;-66
2021/09/08 05:19:21;;;;;;;4.35;1.92;;;;;;;23.38;33.67;99762.94;5032343;28;20412;-66
2021/09/08 05:21:47;;;;;;;3.78;1.98;;;;;;;22.97;33.89;99753.84;5032201;28;20098;-65
2021/09/08 05:24:13;;;;;;;6.15;1.77;;;;;;;23.22;33.87;99754.44;5033609;28;20036;-65
2021/09/08 05:26:39;;;;;;;5.10;1.95;;;;;;;23.06;33.74;99752.41;5034436;28;20081;-66
2021/09/08 05:29:06;;;;;;;6.18;2.20;;;;;;;23.39;33.28;99751.84;5018159;28;20098;-66
2021/09/08 05:31:31;;;;;;;4.97;1.98;;;;;;;23.07;33.30;99742.41;5051520;28;20044;-66
2021/09/08 05:33:57;;;;;;;3.92;1.90;;;;;;;23.25;33.68;99745.84;5051409;28;20037;-66
2021/09/08 05:36:23;;;;;;;5.32;1.80;;;;;;;23.01;33.64;99746.06;5018237;28;20041;-65
2021/09/08 05:38:50;;;;;;;7.13;1.83;;;;;;;22.79;33.90;99745.00;5053026;28;20105;-66
2021/09/08 05:41:16;;;;;;;4.57;1.90;;;;;;;22.85;33.76;99757.59;5055189;28;20045;-66
2021/09/08 05:43:42;;;;;;;4.57;2.25;;;;;;;23.18;33.48;99745.13;5055204;28;20051;-67
2021/09/08 05:46:08;;;;;;;3.97;1.98;;;;;;;22.99;34.05;99740.06;5021667;28;20106;-66
2021/09/08 05:48:34;;;;;;;6.95;2.08;;;;;;;23.48;32.74;99755.84;5038107;28;20093;-67
2021/09/08 05:51:01;;;;;;;5.43;1.98;;;;;;;24.00;32.25;99748.56;5055079;28;20056;-67
2021/09/08 05:53:26;;;;;;;3.33;1.83;;;;;;;23.96;31.94;99748.19;5021619;28;20062;-66
2021/09/08 05:55:54;;;;;;;5.18;2.10;;;;;;;23.77;31.82;99749.41;5054879;28;20610;-66
2021/09/08 05:58:21;;;;;;;4.38;2.08;;;;;;;24.22;31.70;99752.22;5038708;28;20044;-66
2021/09/08 06:00:47;;;;;;;3.50;1.80;;;;;;;24.04;31.34;99747.81;5071561;28;20404;-66
2021/09/08 06:03:12;;;;;;;4.72;1.80;;;;;;;23.57;31.74;99751.69;5038123;28;20039;-66
2021/09/08 06:05:38;;;;;;;5.03;2.00;;;;;;;24.07;31.25;99739.19;5037936;28;20143;-67
2021/09/08 06:08:04;;;;;;;6.35;3.40;;;;;;;24.73;30.40;99752.06;5054532;28;20045;-66
2021/09/08 06:10:30;;;;;;;4.35;1.90;;;;;;;24.56;30.44;99730.31;5071176;28;20040;-67
2021/09/08 06:12:56;;;;;;;4.15;1.88;;;;;;;24.81;29.77;99757.09;5054646;28;20138;-70
2021/09/08 06:15:22;;;;;;;3.95;2.03;;;;;;;24.69;29.77;99753.66;5053939;28;20063;-69
2021/09/08 06:17:49;;;;;;;5.50;1.98;;;;;;;24.42;30.17;99730.88;5054224;28;20528;-69
2021/09/08 06:20:15;;;;;;;3.67;1.90;;;;;;;24.85;29.89;99739.22;5037729;28;20104;-68
2021/09/08 06:22:41;;;;;;;5.88;1.92;;;;;;;24.46;30.29;99741.00;5054461;28;20614;-71
2021/09/08 06:25:08;;;;;;;4.88;1.77;;;;;;;24.92;29.54;99750.78;5021063;28;20083;-69
2021/09/08 06:27:34;;;;;;;3.60;2.00;;;;;;;25.13;29.12;99749.16;5070789;28;20079;-69
2021/09/08 06:30:00;;;;;;;3.03;1.95;;;;;;;25.14;28.71;99739.97;5037756;28;20086;-69
2021/09/08 06:32:29;;;;;;;3.63;2.00;;;;;;;24.97;28.89;99748.09;5038551;28;20051;-69
2021/09/08 06:34:56;;;;;;;6.38;2.20;;;;;;;25.66;28.15;99744.78;5070856;28;20040;-69
2021/09/08 06:37:21;;;;;;;3.28;1.95;;;;;;;26.21;27.21;99755.53;5053925;28;20052;-69
2021/09/08 06:39:47;;;;;;;3.72;1.92;;;;;;;26.00;27.62;99721.81;5020805;28;20403;-68
2021/09/08 06:42:13;;;;;;;4.13;2.00;;;;;;;26.24;26.98;99744.97;5054101;28;20544;-69
2021/09/08 06:44:39;;;;;;;4.18;2.05;;;;;;;25.80;27.74;99731.63;5053914;28;20044;-69
2021/09/08 06:47:05;;;;;;;4.00;1.73;;;;;;;26.55;27.16;99731.63;5020976;28;20193;-70
2021/09/08 06:49:30;;;;;;;7.55;1.85;;;;;;;26.40;26.89;99724.16;5020379;28;20050;-69
2021/09/08 06:51:56;;;;;;;4.47;2.05;;;;;;;26.70;26.10;99735.31;5037465;28;20044;-69
2021/09/08 06:54:22;;;;;;;8.15;1.90;;;;;;;27.07;25.94;99732.59;5037129;28;20090;-70
2021/09/08 06:56:48;;;;;;;6.88;1.73;;;;;;;27.37;25.21;99725.47;5020702;28;20051;-68
2021/09/08 06:59:14;;;;;;;4.60;1.67;;;;;;;26.60;25.91;99721.56;5037372;28;20460;-69
2021/09/08 07:01:39;;;;;;;6.43;1.90;;;;;;;26.71;25.97;99723.34;5036576;28;20041;-69
2021/09/08 07:04:05;;;;;;;4.50;2.17;;;;;;;26.44;25.84;99720.66;5020220;28;20097;-69
2021/09/08 07:06:31;;;;;;;7.63;1.85;;;;;;;25.90;26.01;99727.13;5020303;28;20090;-69
2021/09/08 07:08:57;;;;;;;6.32;2.30;;;;;;;25.52;26.99;99735.38;5037023;28;20056;-69
2021/09/08 07:11:23;;;;;;;3.28;1.90;;;;;;;25.46;27.07;99714.63;5019352;28;20041;-68
2021/09/08 07:13:49;;;;;;;4.25;1.80;;;;;;;26.11;26.44;99715.41;5036682;28;20094;-68
2021/09/08 07:16:14;;;;;;;4.45;1.90;;;;;;;26.38;26.11;99713.50;5020340;28;20145;-69
2021/09/08 07:18:40;;;;;;;5.63;1.73;;;;;;;25.80;26.76;99718.03;5053351;28;20121;-69
2021/09/08 07:21:07;;;;;;;6.82;1.80;;;;;;;25.88;26.27;99693.91;5019980;28;20083;-69
2021/09/08 07:23:33;;;;;;;4.07;1.70;;;;;;;25.28;27.31;99720.31;5020164;28;20037;-69
2021/09/08 07:25:59;;;;;;;3.63;1.70;;;;;;;24.65;28.17;99723.44;5036418;28;20048;-69
2021/09/08 07:28:25;;;;;;;1.98;1.55;;;;;;;25.21;27.67;99725.13;5019718;28;20151;-69
2021/09/08 07:30:54;;;;;;;6.07;1.70;;;;;;;25.69;26.88;99710.81;5036520;28;20152;-69
2021/09/08 07:33:21;;;;;;;3.03;1.73;;;;;;;25.84;26.74;99711.81;5053284;28;20080;-69
2021/09/08 07:35:47;;;;;;;2.67;1.70;;;;;;;25.12;27.42;99709.47;5053047;28;20132;-69
2021/09/08 07:38:18;;;;;;;5.00;2.00;;;;;;;25.62;27.88;99708.28;5036239;28;20534;-69
2021/09/08 07:40:44;;;;;;;5.22;2.08;;;;;;;25.14;27.72;99713.56;5058219;28;20411;-69
2021/09/08 07:43:10;;;;;;;3.85;2.00;;;;;;;24.57;28.64;99704.78;5056027;28;20050;-69
2021/09/08 07:45:36;;;;;;;4.47;2.00;;;;;;;24.53;28.31;99681.09;5072507;28;20457;-69
2021/09/08 07:48:02;;;;;;;8.50;1.55;;;;;;;24.96;27.67;99722.00;5039596;28;20047;-68
2021/09/08 07:50:28;;;;;;;3.33;1.55;;;;;;;25.74;26.94;99708.16;5055763;28;20035;-69
2021/09/08 07:52:54;;;;;;;3.15;1.90;;;;;;;26.52;26.29;99701.06;5056005;28;20059;-69
2021/09/08 07:55:20;;;;;;;3.17;2.13;;;;;;;26.91;25.90;99701.69;5055958;28;20474;-68
2021/09/08 07:57:45;;;;;;;4.93;2.30;;;;;;;26.98;25.13;99698.75;5055907;28;20040;-69
2021/09/08 08:00:12;;;;;;;5.72;1.83;;;;;;;27.04;25.34;99703.97;5055766;28;20047;-71
2021/09/08 08:02:44;;;;;;;4.68;2.08;;;;;;;27.51;24.75;99710.25;5072101;28;20094;-70
2021/09/08 08:05:10;;;;;;;4.22;2.10;;;;;;;27.26;25.33;99704.66;5072112;28;20048;-69
2021/09/08 08:07:36;;;;;;;4.70;1.92;;;;;;;26.67;25.28;99708.59;5072246;28;20036;-71
2021/09/08 08:10:02;;;;;;;3.80;2.00;;;;;;;26.18;25.92;99704.31;5072608;28;20074;-70
2021/09/08 08:12:29;;;;;;;4.45;1.90;;;;;;;26.64;25.82;99711.03;5089069;28;20081;-70
2021/09/08 08:14:55;;;;;;;6.05;2.00;;;;;;;26.94;25.48;99698.44;5072236;28;20133;-70
2021/09/08 08:17:20;;;;;;;9.02;2.10;;;;;;;26.87;25.55;99695.13;5055520;28;20519;-69
2021/09/08 08:19:49;;;;;;;4.22;1.90;;;;;;;26.20;25.57;99688.56;5038851;28;20040;-68
2021/09/08 08:22:15;;;;;;;4.95;1.90;;;;;;;26.72;25.33;99699.63;5056104;28;20047;-68
2021/09/08 08:24:41;;;;;;;3.03;1.60;;;;;;;26.74;25.24;99698.28;5088968;28;20093;-68
2021/09/08 08:27:07;;;;;;;2.95;1.95;;;;;;;26.61;25.74;99695.16;5071768;28;20059;-68
2021/09/08 08:29:33;;;;;;;4.90;2.00;;;;;;;26.30;26.60;99685.91;5071955;28;20068;-68
2021/09/08 08:32:00;;;;;;;4.38;2.05;;;;;;;25.31;26.82;99700.78;5072229;28;20059;-67
2021/09/08 08:34:26;;;;;;;6.65;2.00;;;;;;;26.35;25.98;99675.88;5055164;28;20052;-67
2021/09/08 08:36:52;;;;;;;2.97;1.60;;;;;;;25.53;25.92;99682.59;5072109;28;20083;-67
2021/09/08 08:39:18;;;;;;;3.35;1.75;;;;;;;25.60;25.77;99696.81;5055483;28;20076;-68
2021/09/08 08:41:44;;;;;;;3.95;2.03;;;;;;;25.97;25.68;99702.44;5071988;28;20129;-67
2021/09/08 08:44:10;;;;;;;4.93;1.95;;;;;;;25.97;25.98;99697.00;5055040;28;20048;-68
2021/09/08 08:46:36;;;;;;;2.80;1.75;;;;;;;26.19;25.74;99693.16;5055412;28;20044;-68
2021/09/08 08:49:03;;;;;;;4.53;1.90;;;;;;;25.53;25.94;99685.31;5088564;28;20043;-68
2021/09/08 08:51:29;;;;;;;3.53;1.90;;;;;;;24.95;27.22;99681.50;5088414;28;20032;-68
2021/09/08 08:53:55;;;;;;;4.63;1.70;;;;;;;25.22;26.23;99683.25;5055030;28;20044;-68
2021/09/08 08:56:21;;;;;;;4.78;1.70;;;;;;;25.26;27.37;99687.13;5088716;28;20515;-68
2021/09/08 08:58:47;;;;;;;5.65;1.75;;;;;;;25.40;26.79;99695.75;5055812;28;20044;-68
2021/09/08 09:01:40;;;;;;;6.60;1.80;;;;;;;26.30;25.84;99688.63;5072229;28;20071;-69
2021/09/08 09:04:08;;;;;;;4.32;1.70;;;;;;;27.41;24.65;99685.66;5052963;28;20196;-68
2021/09/08 09:06:38;;;;;;;3.83;1.80;;;;;;;27.06;24.36;99715.41;5089211;28;20245;-69
2021/09/08 09:09:13;;;;;;;7.15;1.88;;;;;;;26.02;25.46;99689.72;5088930;28;20044;-68
2021/09/08 09:11:40;;;;;;;2.33;1.63;;;;;;;26.27;25.62;99679.09;5071921;28;20404;-68
2021/09/08 09:14:07;;;;;;;3.08;1.83;;;;;;;25.92;26.29;99677.88;5074535;28;20131;-68
2021/09/08 09:16:39;;;;;;;2.22;1.80;;;;;;;26.06;25.89;99679.16;5075591;28;20554;-68
2021/09/08 09:19:06;;;;;;;4.20;1.77;;;;;;;25.35;27.04;99698.41;5076409;28;20131;-68
2021/09/08 09:21:33;;;;;;;5.20;1.90;;;;;;;25.70;26.92;99675.19;5059014;28;20035;-68
2021/09/08 09:24:02;;;;;;;3.10;1.90;;;;;;;25.83;26.69;99672.06;5075550;28;20068;-68
2021/09/08 09:26:33;;;;;;;2.78;1.90;;;;;;;25.54;26.65;99665.19;5075344;28;20097;-68
2021/09/08 09:29:16;;;;;;;4.80;2.08;;;;;;;25.47;27.06;99667.31;5093373;28;20495;-68
2021/09/08 09:31:51;;;;;;;3.42;1.90;;;;;;;25.25;27.02;99649.31;5058756;28;20047;-68
2021/09/08 09:34:17;;;;;;;2.85;1.80;;;;;;;25.17;27.76;99663.34;5075483;28;20042;-68
2021/09/08 09:36:43;;;;;;;4.78;1.80;;;;;;;24.84;27.95;99659.63;5058626;28;20043;-68
2021/09/08 09:39:09;;;;;;;3.90;2.05;;;;;;;24.81;28.30;99654.69;5075053;28;20437;-68
2021/09/08 09:41:36;;;;;;;2.83;2.00;;;;;;;25.15;27.95;99655.44;5057325;28;20048;-68
2021/09/08 09:44:09;;;;;;;8.40;1.90;;;;;;;25.20;28.45;99655.47;5074964;28;20032;-67
2021/09/08 09:46:39;;;;;;;3.97;1.83;;;;;;;24.53;29.01;99656.66;5074865;28;20127;-68
2021/09/08 09:49:05;;;;;;;2.97;2.00;;;;;;;24.97;28.77;99655.72;5091765;28;20051;-69
2021/09/08 09:51:31;;;;;;;4.82;2.28;;;;;;;24.22;30.23;99649.06;5058193;28;20054;-68
2021/09/08 09:53:57;;;;;;;3.70;2.10;;;;;;;24.67;29.71;99641.69;5058484;28;20047;-68
2021/09/08 09:56:23;;;;;;;6.63;2.25;;;;;;;24.47;29.82;99644.06;5090801;28;20056;-68
2021/09/08 09:58:49;;;;;;;3.53;2.05;;;;;;;24.48;29.82;99643.81;5091975;28;20117;-67
2021/09/08 10:01:15;;;;;;;2.35;1.85;;;;;;;24.46;30.00;99645.94;5058181;28;20392;-68
2021/09/08 10:03:41;;;;;;;3.83;2.05;;;;;;;25.11;28.89;99643.41;5074316;28;20068;-67
2021/09/08 10:06:07;;;;;;;6.47;2.10;;;;;;;24.73;28.66;99644.25;5074287;28;20110;-68
2021/09/08 10:08:37;;;;;;;3.42;2.03;;;;;;;25.58;27.93;99633.72;5074254;28;20040;-68
2021/09/08 10:11:06;;;;;;;5.20;1.90;;;;;;;24.99;28.71;99629.13;5057977;28;20495;-68
2021/09/08 10:13:44;;;;;;;6.82;2.17;;;;;;;25.58;28.13;99635.59;5091149;28;20515;-68
2021/09/08 10:16:10;;;;;;;5.20;2.10;;;;;;;25.03;27.98;99630.28;5074415;28;20044;-67
2021/09/08 10:18:36;;;;;;;2.65;1.83;;;;;;;25.27;28.10;99625.41;5057833;28;20063;-68
2021/09/08 10:21:04;;;;;;;6.05;1.95;;;;;;;25.55;27.22;99623.34;5057607;28;20048;-68
2021/09/08 10:23:37;;;;;;;3.20;1.98;;;;;;;25.38;27.87;99630.75;5074010;28;20043;-68
2021/09/08 10:26:14;;;;;;;5.10;2.00;;;;;;;25.70;27.53;99612.63;5074118;28;20043;-67
2021/09/08 10:28:41;;;;;;;3.80;1.73;;;;;;;25.49;27.53;99618.94;5074066;28;20064;-68
2021/09/08 10:31:08;;;;;;;3.95;1.88;;;;;;;25.44;27.67;99615.31;5057402;28;20048;-67
2021/09/08 10:33:38;;;;;;;5.32;1.80;;;;;;;25.49;27.42;99597.16;5092019;28;20105;-68
2021/09/08 10:36:05;;;;;;;3.40;2.00;;;;;;;25.24;27.88;99610.44;5091057;28;20044;-68
2021/09/08 10:38:32;;;;;;;6.00;1.98;;;;;;;24.71;28.29;99570.31;5057327;28;20044;-68
2021/09/08 10:41:05;;;;;;;2.42;1.80;;;;;;;25.10;27.88;99592.84;5074094;28;20082;-68
2021/09/08 10:43:33;;;;;;;5.68;2.03;;;;;;;24.37;28.83;99595.06;5057428;28;20094;-68
2021/09/08 10:45:59;;;;;;;8.82;2.25;;;;;;;23.76;29.47;99578.78;5057507;28;20047;-68
2021/09/08 10:48:43;;;;;;;6.82;2.03;;;;;;;25.13;28.04;99584.19;5091900;28;20065;-68
2021/09/08 10:51:11;;;;;;;5.75;1.90;;;;;;;24.95;28.53;99584.50;5090495;28;20040;-68
2021/09/08 10:53:38;;;;;;;7.60;2.08;;;;;;;24.84;28.07;99578.13;5057010;28;20055;-68
2021/09/08 10:56:05;;;;;;;8.13;2.00;;;;;;;25.28;27.99;99592.53;5056939;28;20514;-68
2021/09/08 10:58:54;;;;;;;7.15;1.90;;;;;;;25.44;27.82;99566.34;5090189;28;20089;-68
2021/09/08 11:01:19;;;;;;;4.53;2.10;;;;;;;25.08;27.86;99567.81;5057145;28;20086;-68
2021/09/08 11:03:45;;;;;;;4.70;2.00;;;;;;;25.31;27.69;99567.53;5057126;28;20787;-67
2021/09/08 11:06:11;;;;;;;6.63;3.22;;;;;;;25.30;27.32;99563.19;5056654;28;20109;-67
2021/09/08 11:08:37;;;;;;;3.78;1.90;;;;;;;24.94;28.23;99588.28;5090406;28;20083;-67
2021/09/08 11:11:17;;;;;;;5.72;1.92;;;;;;;24.50;28.82;99562.09;5089012;28;20068;-67
2021/09/08 11:13:46;;;;;;;3.72;2.13;;;;;;;24.05;29.53;99572.28;5056870;28;20048;-69
2021/09/08 11:16:26;;;;;;;4.95;1.75;;;;;;;24.80;29.03;99571.53;5073229;28;20039;-68
2021/09/08 11:18:53;;;;;;;2.33;1.70;;;;;;;24.79;29.23;99548.16;5090296;28;20134;-68
2021/09/08 11:21:31;;;;;;;5.25;1.98;;;;;;;25.52;28.29;99557.75;5056571;28;20055;-68
2021/09/08 11:24:07;;;;;;;3.75;2.00;;;;;;;25.30;28.22;99543.31;5056584;28;20044;-68
2021/09/08 11:26:37;;;;;;;8.65;2.10;;;;;;;25.43;28.33;99564.72;5073280;28;20048;-66
2021/09/08 11:29:06;;;;;;;4.20;2.10;;;;;;;24.73;28.77;99548.34;5072831;28;20052;-67
2021/09/08 11:31:38;;;;;;;6.60;2.20;;;;;;;25.05;28.80;99548.50;5072798;28;20044;-68
2021/09/08 11:34:15;;;;;;;9.18;3.15;;;;;;;25.02;28.64;99536.22;5089717;28;20036;-75